Time;durP1;ratioP1;P1;durP2;ratioP2;P2;SDS_P1;SDS_P2;PMS_P1;PMS_P2;Temp;Humidity;BMP_temperature;BMP_pressure;BME280_temperature;BME280_humidity;BME280_pressure;Samples;Min_cycle;Max_cycle;Signal;HPM_P1;HPM_P2
2021/08/05 00:00:27;;;;;;;9.15;7.10;;;;;;;18.20;64.02;98027.53;5068606;28;20021;-76
2021/08/05 00:02:53;;;;;;;10.52;7.10;;;;;;;18.21;64.13;98035.53;5070429;28;20070;-76
2021/08/05 00:05:18;;;;;;;8.68;6.43;;;;;;;18.19;63.87;98031.47;5069878;28;20021;-76
2021/08/05 00:07:43;;;;;;;13.50;7.25;;;;;;;18.18;64.12;98035.41;5070415;28;20456;-76
2021/08/05 00:10:09;;;;;;;10.70;6.70;;;;;;;18.21;64.10;98027.19;5069698;28;20028;-76
2021/08/05 00:12:34;;;;;;;7.53;6.18;;;;;;;18.25;64.18;98025.31;5068134;28;20023;-75
2021/08/05 00:15:00;;;;;;;10.90;6.88;;;;;;;18.30;64.38;98025.06;5070194;28;20036;-77
2021/08/05 00:17:26;;;;;;;6.97;5.90;;;;;;;18.26;64.07;98026.13;5069013;28;20024;-76
2021/08/05 00:19:51;;;;;;;10.38;6.75;;;;;;;18.15;64.00;98020.31;5069999;28;20027;-76
2021/08/05 00:22:17;;;;;;;11.15;6.32;;;;;;;18.08;64.58;98026.50;5069798;28;20360;-76
2021/08/05 00:24:42;;;;;;;8.32;6.47;;;;;;;18.10;64.39;98026.94;5070203;28;20118;-76
2021/08/05 00:27:08;;;;;;;9.98;6.75;;;;;;;18.14;64.61;98027.81;5070128;28;20462;-76
2021/08/05 00:29:33;;;;;;;8.48;6.60;;;;;;;18.22;64.63;98020.50;5069989;28;20025;-76
2021/08/05 00:31:59;;;;;;;9.25;6.68;;;;;;;18.29;65.07;98008.75;5069645;28;20025;-76
2021/08/05 00:34:24;;;;;;;11.43;6.57;;;;;;;18.35;64.75;98010.09;5069692;28;20107;-76
2021/08/05 00:36:50;;;;;;;9.68;6.30;;;;;;;18.40;64.73;98015.38;5070092;28;20025;-75
2021/08/05 00:39:15;;;;;;;10.73;6.75;;;;;;;18.44;64.53;98010.72;5069719;28;20090;-76
2021/08/05 00:41:40;;;;;;;8.10;6.25;;;;;;;18.48;64.42;98005.25;5069283;28;20107;-76
2021/08/05 00:44:06;;;;;;;8.45;6.40;;;;;;;18.52;64.47;98010.91;5068391;28;20028;-75
2021/08/05 00:46:31;;;;;;;8.88;6.25;;;;;;;18.53;64.38;98010.53;5069923;28;20131;-75
2021/08/05 00:48:57;;;;;;;8.68;6.63;;;;;;;18.56;64.44;98006.19;5069574;28;20444;-76
2021/08/05 00:51:22;;;;;;;7.47;5.72;;;;;;;18.59;64.23;98005.47;5069407;28;20024;-76
2021/08/05 00:53:47;;;;;;;8.68;5.95;;;;;;;18.59;64.30;98003.53;5067454;28;20468;-76
2021/08/05 00:56:13;;;;;;;8.15;5.90;;;;;;;18.60;64.15;97993.22;5069346;28;20025;-75
2021/08/05 00:58:38;;;;;;;10.85;6.47;;;;;;;18.58;63.86;97993.59;5068371;28;20021;-76
2021/08/05 01:01:10;;;;;;;7.68;6.32;;;;;;;18.56;64.33;97995.09;5069328;28;20099;-75
2021/08/05 01:03:41;;;;;;;11.20;6.45;;;;;;;18.53;64.22;97977.19;5069265;28;20048;-76
2021/08/05 01:06:15;;;;;;;9.13;6.40;;;;;;;18.54;64.20;97994.69;5069690;28;20024;-76
2021/08/05 01:08:46;;;;;;;9.20;6.50;;;;;;;18.53;64.09;97987.50;5068858;28;20025;-76
2021/08/05 01:11:20;;;;;;;8.02;6.25;;;;;;;18.50;64.21;97980.69;5068867;28;20024;-76
2021/08/05 01:13:56;;;;;;;10.25;6.68;;;;;;;18.48;64.21;97973.91;5069402;28;20035;-76
2021/08/05 01:16:29;;;;;;;10.57;6.57;;;;;;;18.50;64.30;97971.56;5067407;28;20154;-75
2021/08/05 01:19:02;;;;;;;8.68;6.25;;;;;;;18.53;64.22;97979.19;5067849;28;20082;-76
2021/08/05 01:21:37;;;;;;;10.43;6.82;;;;;;;18.54;64.17;97969.69;5068027;28;20036;-76
2021/08/05 01:24:08;;;;;;;9.00;6.13;;;;;;;18.53;64.28;97970.84;5067902;28;20028;-76
2021/08/05 01:26:54;;;;;;;10.50;6.43;;;;;;;18.52;64.41;97966.47;5069165;28;20080;-76
2021/08/05 01:29:20;;;;;;;9.43;6.75;;;;;;;18.47;64.43;97967.53;5069384;28;20055;-75
2021/08/05 01:31:46;;;;;;;9.15;6.22;;;;;;;18.42;64.44;97965.84;5071752;28;20024;-75
2021/08/05 01:34:14;;;;;;;8.55;6.50;;;;;;;18.39;64.47;97957.41;5072866;28;20103;-75
2021/08/05 01:36:43;;;;;;;9.25;6.35;;;;;;;18.41;64.43;97955.09;5073167;28;20104;-75
2021/08/05 01:39:09;;;;;;;9.88;6.72;;;;;;;18.45;64.86;97956.81;5072710;28;20029;-75
2021/08/05 01:41:36;;;;;;;8.18;6.20;;;;;;;18.48;64.83;97960.81;5072906;28;20032;-75
2021/08/05 01:44:04;;;;;;;10.27;7.15;;;;;;;18.52;64.87;97956.16;5072401;28;20039;-75
2021/08/05 01:46:30;;;;;;;9.75;6.65;;;;;;;18.54;64.98;97955.81;5072455;28;20024;-75
2021/08/05 01:48:55;;;;;;;8.10;6.25;;;;;;;18.53;65.06;97959.75;5072844;28;20066;-75
2021/08/05 01:51:21;;;;;;;9.55;6.90;;;;;;;18.53;64.76;97954.19;5072502;28;20048;-75
2021/08/05 01:53:49;;;;;;;9.98;7.20;;;;;;;18.53;64.94;97956.97;5072465;28;20031;-74
2021/08/05 01:56:15;;;;;;;10.10;6.75;;;;;;;18.48;64.99;97946.13;5072739;28;20020;-74
2021/08/05 01:58:40;;;;;;;9.25;6.55;;;;;;;18.42;64.99;97954.75;5072859;28;20024;-75
2021/08/05 02:01:06;;;;;;;9.05;7.10;;;;;;;18.39;65.10;97949.91;5072946;28;20091;-75
2021/08/05 02:03:31;;;;;;;9.48;7.13;;;;;;;18.41;65.24;97949.53;5072824;28;20480;-75
2021/08/05 02:06:23;;;;;;;9.38;6.55;;;;;;;18.41;65.26;97950.34;5072617;28;20028;-75
2021/08/05 02:08:57;;;;;;;10.07;6.95;;;;;;;18.38;65.38;97956.63;5070741;28;20044;-75
2021/08/05 02:11:23;;;;;;;11.38;7.00;;;;;;;18.37;65.46;97955.03;5071436;28;20058;-75
2021/08/05 02:13:50;;;;;;;10.32;7.07;;;;;;;18.35;65.49;97956.53;5072394;28;20484;-75
2021/08/05 02:16:18;;;;;;;9.95;7.45;;;;;;;18.26;65.65;97953.94;5072374;28;20032;-74
2021/08/05 02:18:45;;;;;;;11.82;7.68;;;;;;;18.27;65.68;97958.34;5072253;28;20025;-75
2021/08/05 02:21:13;;;;;;;13.18;8.13;;;;;;;18.32;65.97;97948.94;5070662;28;20020;-75
2021/08/05 02:23:40;;;;;;;13.30;8.38;;;;;;;18.38;65.97;97953.03;5070020;28;20032;-74
2021/08/05 02:26:07;;;;;;;11.18;7.93;;;;;;;18.41;66.02;97947.56;5072407;28;20035;-74
2021/08/05 02:28:32;;;;;;;9.43;7.53;;;;;;;18.42;65.95;97945.59;5072141;28;20028;-75
2021/08/05 02:31:00;;;;;;;12.90;7.10;;;;;;;18.33;66.19;97954.13;5072332;28;20028;-74
2021/08/05 02:33:27;;;;;;;10.93;7.38;;;;;;;18.22;65.85;97948.31;5070989;28;20056;-75
2021/08/05 02:35:55;;;;;;;12.02;7.80;;;;;;;18.19;66.10;97954.59;5072034;28;20023;-75
2021/08/05 02:38:21;;;;;;;11.50;6.80;;;;;;;18.22;66.28;97945.56;5072138;28;20028;-75
2021/08/05 02:40:49;;;;;;;10.77;7.07;;;;;;;18.25;66.42;97950.38;5072243;28;20095;-75
2021/08/05 02:43:15;;;;;;;8.57;7.30;;;;;;;18.29;66.39;97954.06;5071715;28;20052;-74
2021/08/05 02:45:44;;;;;;;10.60;7.07;;;;;;;18.32;66.48;97948.94;5072281;28;20039;-74
2021/08/05 02:48:11;;;;;;;9.82;7.72;;;;;;;18.28;66.50;97943.28;5070792;28;20380;-74
2021/08/05 02:50:37;;;;;;;10.30;7.07;;;;;;;18.26;66.43;97935.34;5071458;28;20024;-74
2021/08/05 02:53:04;;;;;;;9.40;7.80;;;;;;;18.18;66.73;97929.97;5071795;28;20022;-74
2021/08/05 02:55:29;;;;;;;10.38;8.48;;;;;;;18.18;67.00;97921.63;5071627;28;20024;-74
2021/08/05 02:57:55;;;;;;;10.15;8.32;;;;;;;18.21;66.99;97927.28;5071397;28;20039;-74
2021/08/05 03:00:22;;;;;;;13.23;8.60;;;;;;;18.25;67.01;97925.41;5071113;28;20028;-74
2021/08/05 03:02:48;;;;;;;11.70;8.93;;;;;;;18.26;67.01;97910.38;5066742;28;20096;-73
2021/08/05 03:05:15;;;;;;;11.07;8.45;;;;;;;18.23;66.87;97913.03;5070275;28;20057;-73
2021/08/05 03:07:41;;;;;;;10.93;8.52;;;;;;;18.19;67.18;97921.28;5070290;28;20057;-74
2021/08/05 03:10:08;;;;;;;13.70;9.43;;;;;;;18.14;67.19;97914.03;5071378;28;20103;-73
2021/08/05 03:12:34;;;;;;;12.43;9.68;;;;;;;18.09;67.47;97914.34;5070022;28;20028;-74
2021/08/05 03:15:00;;;;;;;11.32;8.65;;;;;;;18.04;67.35;97911.00;5070977;28;20035;-74
2021/08/05 03:17:25;;;;;;;9.70;7.85;;;;;;;17.96;68.04;97910.00;5071016;28;20031;-74
2021/08/05 03:19:50;;;;;;;13.32;8.40;;;;;;;17.89;68.11;97904.28;5071385;28;20021;-74
2021/08/05 03:22:16;;;;;;;11.18;9.43;;;;;;;17.89;67.90;97902.31;5069320;28;20042;-74
2021/08/05 03:24:42;;;;;;;12.18;9.65;;;;;;;17.92;68.11;97906.34;5071056;28;20029;-73
2021/08/05 03:27:11;;;;;;;12.13;8.50;;;;;;;17.92;68.20;97900.78;5071349;28;20465;-73
2021/08/05 03:29:37;;;;;;;10.45;8.63;;;;;;;17.92;68.40;97909.09;5070935;28;20099;-74
2021/08/05 03:32:04;;;;;;;7.38;6.55;;;;;;;17.90;68.57;97903.13;5069214;28;20016;-74
2021/08/05 03:34:29;;;;;;;10.13;7.82;;;;;;;17.88;68.70;97897.94;5070640;28;20051;-74
2021/08/05 03:36:54;;;;;;;10.43;8.15;;;;;;;17.90;68.70;97900.34;5070965;28;20026;-75
2021/08/05 03:39:20;;;;;;;8.07;7.13;;;;;;;17.92;68.65;97893.28;5070834;28;20028;-74
2021/08/05 03:41:46;;;;;;;9.38;7.22;;;;;;;17.98;68.70;97896.59;5071877;28;20028;-74
2021/08/05 03:44:11;;;;;;;7.72;6.93;;;;;;;18.00;68.73;97889.53;5071442;28;20053;-74
2021/08/05 03:46:37;;;;;;;8.55;7.13;;;;;;;18.00;68.75;97888.72;5070490;28;20043;-75
2021/08/05 03:49:02;;;;;;;8.15;6.82;;;;;;;18.00;68.62;97880.41;5071840;28;20033;-75
2021/08/05 03:51:27;;;;;;;8.00;7.05;;;;;;;17.96;69.12;97871.16;5071496;28;20112;-74
2021/08/05 03:53:53;;;;;;;8.85;7.30;;;;;;;17.94;68.95;97873.50;5071377;28;20388;-74
2021/08/05 03:56:18;;;;;;;10.13;7.70;;;;;;;17.91;68.77;97872.25;5071548;28;20536;-74
2021/08/05 03:58:43;;;;;;;11.43;8.48;;;;;;;17.93;69.21;97871.88;5071414;28;20460;-74
2021/08/05 04:01:09;;;;;;;10.40;9.15;;;;;;;17.91;69.11;97866.72;5071143;28;20472;-74
2021/08/05 04:03:34;;;;;;;10.55;9.40;;;;;;;17.89;69.12;97866.25;5071238;28;20709;-75
2021/08/05 04:06:00;;;;;;;12.80;9.77;;;;;;;17.87;69.03;97860.25;5070043;28;20032;-75
2021/08/05 04:08:26;;;;;;;11.07;9.45;;;;;;;17.83;69.24;97859.38;5071037;28;20035;-74
2021/08/05 04:10:51;;;;;;;8.90;8.00;;;;;;;17.75;69.31;97852.81;5071602;28;20024;-74
2021/08/05 04:13:17;;;;;;;10.32;7.25;;;;;;;17.72;69.28;97842.47;5071033;28;20025;-74
2021/08/05 04:15:43;;;;;;;9.07;7.07;;;;;;;17.71;69.56;97840.88;5071473;28;20063;-74
2021/08/05 04:18:08;;;;;;;9.13;7.13;;;;;;;17.71;70.00;97838.09;5071441;28;20028;-74
2021/08/05 04:20:34;;;;;;;9.93;7.10;;;;;;;17.71;70.11;97838.88;5071669;28;20061;-74
2021/08/05 04:22:59;;;;;;;7.40;5.65;;;;;;;17.72;70.06;97836.94;5069624;28;20094;-74
2021/08/05 04:25:25;;;;;;;7.22;6.53;;;;;;;17.67;70.00;97837.22;5071249;28;20089;-74
2021/08/05 04:27:50;;;;;;;7.25;5.40;;;;;;;17.65;69.84;97831.22;5071383;28;20052;-74
2021/08/05 04:30:16;;;;;;;9.35;5.93;;;;;;;17.64;69.97;97832.38;5071288;28;20383;-74
2021/08/05 04:32:42;;;;;;;7.03;6.18;;;;;;;17.64;70.16;97821.28;5071375;28;20024;-73
2021/08/05 04:35:09;;;;;;;8.98;6.63;;;;;;;17.63;70.31;97816.91;5071215;28;20044;-74
2021/08/05 04:37:34;;;;;;;8.60;6.38;;;;;;;17.59;70.33;97818.78;5069876;28;20111;-74
2021/08/05 04:40:00;;;;;;;7.55;6.80;;;;;;;17.57;70.53;97813.56;5069812;28;20186;-74
2021/08/05 04:42:25;;;;;;;7.07;6.32;;;;;;;17.58;70.49;97817.97;5070757;28;20067;-73
2021/08/05 04:44:51;;;;;;;8.07;6.82;;;;;;;17.59;70.49;97814.03;5070767;28;20048;-74
2021/08/05 04:47:16;;;;;;;7.43;6.72;;;;;;;17.61;70.75;97808.94;5071367;28;20484;-74
2021/08/05 04:49:41;;;;;;;9.52;6.75;;;;;;;17.64;70.59;97805.44;5070939;28;20408;-73
2021/08/05 04:52:07;;;;;;;7.07;6.35;;;;;;;17.66;70.51;97803.09;5070737;28;20031;-73
2021/08/05 04:54:34;;;;;;;8.88;6.53;;;;;;;17.65;70.75;97809.03;5070669;28;20028;-74
2021/08/05 04:57:03;;;;;;;7.00;6.18;;;;;;;17.65;70.77;97806.25;5071024;28;20036;-74
2021/08/05 04:59:28;;;;;;;7.45;5.90;;;;;;;17.67;70.44;97801.94;5070983;28;20017;-73
2021/08/05 05:01:54;;;;;;;7.15;6.00;;;;;;;17.64;70.80;97805.44;5070768;28;20024;-74
2021/08/05 05:04:20;;;;;;;7.20;5.63;;;;;;;17.64;70.71;97796.31;5070873;28;20103;-74
2021/08/05 05:06:45;;;;;;;7.40;6.10;;;;;;;17.62;70.88;97802.22;5073269;28;20108;-73
2021/08/05 05:09:10;;;;;;;8.80;6.20;;;;;;;17.61;70.68;97817.25;5074821;28;20469;-75
2021/08/05 05:11:36;;;;;;;5.28;4.75;;;;;;;17.63;71.11;97808.59;5074477;28;20492;-75
2021/08/05 05:14:01;;;;;;;7.32;6.38;;;;;;;17.61;70.79;97808.94;5074721;28;20465;-74
2021/08/05 05:16:26;;;;;;;6.18;5.57;;;;;;;17.60;70.99;97806.53;5074712;28;20154;-74
2021/08/05 05:18:52;;;;;;;6.25;5.65;;;;;;;17.64;71.31;97807.41;5074808;28;20083;-73
2021/08/05 05:21:17;;;;;;;6.72;5.45;;;;;;;17.67;71.10;97803.94;5074412;28;20025;-73
2021/08/05 05:23:43;;;;;;;6.85;5.63;;;;;;;17.66;70.76;97796.78;5074687;28;20396;-74
2021/08/05 05:26:08;;;;;;;7.75;5.80;;;;;;;17.67;70.87;97806.69;5073317;28;20119;-74
2021/08/05 05:28:35;;;;;;;6.97;6.00;;;;;;;17.68;70.89;97806.31;5074911;28;20035;-74
2021/08/05 05:31:01;;;;;;;6.82;5.43;;;;;;;17.71;70.89;97810.38;5074466;28;20029;-74
2021/08/05 05:33:27;;;;;;;6.65;5.95;;;;;;;17.76;70.95;97810.06;5074428;28;20032;-74
2021/08/05 05:35:52;;;;;;;7.32;5.47;;;;;;;17.81;70.81;97804.25;5074344;28;20396;-74
2021/08/05 05:38:18;;;;;;;6.70;5.38;;;;;;;17.79;71.12;97809.34;5074074;28;20020;-74
2021/08/05 05:40:44;;;;;;;7.55;6.70;;;;;;;17.79;70.94;97805.78;5074216;28;20028;-74
2021/08/05 05:43:10;;;;;;;7.15;6.45;;;;;;;17.73;70.76;97807.22;5074104;28;20035;-74
2021/08/05 05:45:36;;;;;;;10.82;8.02;;;;;;;17.77;70.97;97806.13;5073712;28;20049;-74
2021/08/05 05:48:02;;;;;;;11.00;8.02;;;;;;;17.74;71.10;97806.84;5074270;28;20032;-74
2021/08/05 05:50:29;;;;;;;10.85;8.18;;;;;;;17.74;71.20;97812.41;5074082;28;20029;-74
2021/08/05 05:52:56;;;;;;;4.05;3.65;;;;;;;17.72;72.12;97811.97;5073297;28;20024;-74
2021/08/05 05:55:22;;;;;;;9.02;6.85;;;;;;;17.65;71.50;97806.25;5073834;28;20048;-74
2021/08/05 05:57:48;;;;;;;8.75;7.13;;;;;;;17.65;71.34;97820.13;5074224;28;20523;-74
2021/08/05 06:00:14;;;;;;;8.70;7.25;;;;;;;17.63;71.63;97805.81;5074018;28;20024;-74
2021/08/05 06:02:39;;;;;;;11.70;8.95;;;;;;;17.61;71.71;97795.06;5073596;28;20052;-74
2021/08/05 06:05:05;;;;;;;9.57;7.68;;;;;;;17.56;72.02;97798.91;5073965;28;20020;-74
2021/08/05 06:07:30;;;;;;;10.60;8.15;;;;;;;17.61;71.73;97791.50;5073977;28;20024;-73
2021/08/05 06:09:56;;;;;;;9.55;6.75;;;;;;;17.67;71.63;97781.75;5073920;28;20016;-73
2021/08/05 06:12:21;;;;;;;9.70;6.80;;;;;;;17.70;71.72;97792.13;5072084;28;20079;-72
2021/08/05 06:14:46;;;;;;;10.05;7.32;;;;;;;17.71;71.53;97783.44;5074107;28;20096;-73
2021/08/05 06:17:13;;;;;;;8.52;7.00;;;;;;;17.70;71.68;97779.03;5073337;28;20032;-73
2021/08/05 06:19:39;;;;;;;10.38;7.10;;;;;;;17.69;71.62;97771.09;5073721;28;20384;-73
2021/08/05 06:22:04;;;;;;;9.48;7.35;;;;;;;17.70;71.26;97772.72;5073279;28;20027;-74
2021/08/05 06:24:29;;;;;;;9.60;6.13;;;;;;;17.67;71.82;97771.44;5072181;28;20127;-74
2021/08/05 06:26:55;;;;;;;8.50;6.50;;;;;;;17.64;71.21;97768.59;5072065;28;20024;-75
2021/08/05 06:29:21;;;;;;;5.88;4.97;;;;;;;17.60;71.37;97768.50;5073603;28;20095;-75
2021/08/05 06:31:46;;;;;;;8.40;6.20;;;;;;;17.58;71.13;97759.72;5071881;28;20024;-74
2021/08/05 06:34:12;;;;;;;8.98;7.22;;;;;;;17.57;71.19;97755.34;5073202;28;20464;-75
2021/08/05 06:36:37;;;;;;;11.18;7.25;;;;;;;17.57;71.48;97752.59;5073199;28;20042;-73
2021/08/05 06:39:04;;;;;;;8.93;7.22;;;;;;;17.60;71.38;97749.09;5073011;28;20031;-75
2021/08/05 06:41:31;;;;;;;8.43;7.43;;;;;;;17.62;71.28;97748.75;5072790;28;20050;-75
2021/08/05 06:43:56;;;;;;;11.32;8.75;;;;;;;17.59;71.39;97752.22;5067146;28;20020;-75
2021/08/05 06:46:22;;;;;;;10.05;8.38;;;;;;;17.61;71.56;97744.38;5071859;28;20023;-75
2021/08/05 06:48:47;;;;;;;11.32;9.68;;;;;;;17.63;71.48;97745.59;5072625;28;20473;-75
2021/08/05 06:51:13;;;;;;;12.50;10.27;;;;;;;17.62;71.45;97746.75;5071975;28;20021;-75
2021/08/05 06:53:38;;;;;;;12.32;10.02;;;;;;;17.63;71.53;97761.44;5070680;28;20548;-74
2021/08/05 06:56:05;;;;;;;13.52;10.15;;;;;;;17.62;71.46;97755.09;5071669;28;20017;-75
2021/08/05 06:58:31;;;;;;;12.90;10.45;;;;;;;17.64;71.56;97757.50;5072081;28;20052;-74
2021/08/05 07:00:59;;;;;;;14.93;11.70;;;;;;;17.67;71.65;97756.78;5072423;28;20020;-73
2021/08/05 07:03:24;;;;;;;14.98;12.73;;;;;;;17.60;71.93;97742.75;5072120;28;20031;-75
2021/08/05 07:05:49;;;;;;;15.38;11.68;;;;;;;17.60;71.71;97751.88;5071788;28;20033;-73
2021/08/05 07:08:15;;;;;;;15.32;11.80;;;;;;;17.61;71.83;97753.47;5071881;28;20127;-73
2021/08/05 07:10:40;;;;;;;13.02;11.23;;;;;;;17.64;71.77;97752.75;5072341;28;20404;-73
2021/08/05 07:13:05;;;;;;;14.60;11.93;;;;;;;17.68;72.05;97750.06;5071365;28;20028;-72
2021/08/05 07:15:32;;;;;;;15.27;12.27;;;;;;;17.69;71.68;97746.16;5071727;28;20506;-73
2021/08/05 07:17:57;;;;;;;12.88;10.55;;;;;;;17.62;71.81;97749.53;5072011;28;20042;-73
2021/08/05 07:20:22;;;;;;;13.88;11.98;;;;;;;17.58;71.92;97751.41;5071226;28;20425;-74
2021/08/05 07:22:48;;;;;;;15.15;12.38;;;;;;;17.60;72.05;97735.22;5071798;28;20048;-74
2021/08/05 07:25:15;;;;;;;18.30;13.75;;;;;;;17.63;71.89;97734.50;5071421;28;20032;-74
2021/08/05 07:27:41;;;;;;;14.77;13.25;;;;;;;17.67;71.93;97731.84;5071316;28;20021;-72
2021/08/05 07:30:09;;;;;;;17.30;13.85;;;;;;;17.69;71.73;97729.50;5069490;28;20055;-73
2021/08/05 07:32:35;;;;;;;15.18;13.43;;;;;;;17.65;71.84;97734.94;5070546;28;20805;-74
2021/08/05 07:35:01;;;;;;;15.52;13.13;;;;;;;17.66;71.86;97736.56;5070414;28;20085;-73
2021/08/05 07:37:27;;;;;;;15.35;12.90;;;;;;;17.69;72.00;97733.06;5070861;28;20028;-73
2021/08/05 07:39:52;;;;;;;17.05;14.23;;;;;;;17.69;71.74;97733.06;5071306;28;20036;-72
2021/08/05 07:42:19;;;;;;;15.73;13.02;;;;;;;17.73;71.84;97744.22;5070515;28;20027;-74
2021/08/05 07:44:44;;;;;;;14.45;12.15;;;;;;;17.76;71.90;97737.97;5069069;28;20047;-74
2021/08/05 07:47:10;;;;;;;14.23;11.90;;;;;;;17.78;71.81;97724.53;5070536;28;20020;-73
2021/08/05 07:49:35;;;;;;;15.77;10.90;;;;;;;17.79;71.74;97731.69;5071233;28;20115;-72
2021/08/05 07:52:01;;;;;;;11.73;9.60;;;;;;;17.76;71.90;97724.09;5052727;28;20396;-74
2021/08/05 07:54:26;;;;;;;11.27;9.52;;;;;;;17.78;71.86;97724.53;5069396;28;20178;-74
2021/08/05 07:56:52;;;;;;;11.10;9.15;;;;;;;17.80;71.96;97730.53;5070572;28;20392;-73
2021/08/05 07:59:17;;;;;;;9.60;8.60;;;;;;;17.84;71.92;97730.63;5069570;28;20115;-73
2021/08/05 08:01:42;;;;;;;10.25;9.15;;;;;;;17.83;72.27;97717.91;5070728;28;20481;-73
2021/08/05 08:04:08;;;;;;;10.98;8.75;;;;;;;17.81;71.73;97717.47;5069732;28;20059;-71
2021/08/05 08:06:33;;;;;;;10.30;8.98;;;;;;;17.79;71.86;97715.06;5070687;28;20047;-73
2021/08/05 08:08:59;;;;;;;11.50;8.52;;;;;;;17.77;71.82;97702.72;5069443;28;20013;-74
2021/08/05 08:11:24;;;;;;;9.30;8.30;;;;;;;17.73;72.50;97708.19;5069846;28;20024;-73
2021/08/05 08:13:50;;;;;;;9.63;8.60;;;;;;;17.70;72.15;97714.47;5070343;28;20420;-73
2021/08/05 08:16:19;;;;;;;10.80;9.18;;;;;;;17.68;72.23;97708.47;5069106;28;20070;-72
2021/08/05 08:18:44;;;;;;;9.68;8.15;;;;;;;17.63;72.65;97703.22;5070194;28;20056;-73
2021/08/05 08:21:10;;;;;;;8.10;7.22;;;;;;;17.62;72.45;97710.72;5070039;28;20078;-71
2021/08/05 08:23:35;;;;;;;9.00;7.95;;;;;;;17.62;72.39;97713.50;5070387;28;20162;-72
2021/08/05 08:26:00;;;;;;;8.38;6.28;;;;;;;17.66;72.47;97708.84;5069824;28;20041;-71
2021/08/05 08:28:26;;;;;;;10.45;7.18;;;;;;;17.67;72.49;97702.13;5068637;28;20031;-74
2021/08/05 08:30:51;;;;;;;9.02;5.88;;;;;;;17.67;72.60;97704.88;5069568;28;20047;-71
2021/08/05 08:33:16;;;;;;;6.97;5.63;;;;;;;17.69;72.63;97699.78;5068782;28;20032;-73
2021/08/05 08:35:42;;;;;;;7.50;5.68;;;;;;;17.69;72.50;97690.69;5070283;28;20071;-71
2021/08/05 08:38:07;;;;;;;5.72;4.75;;;;;;;17.64;72.37;97688.19;5070258;28;20021;-71
2021/08/05 08:40:33;;;;;;;5.25;4.13;;;;;;;17.61;72.91;97692.47;5068489;28;20027;-72
2021/08/05 08:42:58;;;;;;;4.95;4.40;;;;;;;17.54;72.63;97689.53;5069336;28;20143;-73
2021/08/05 08:45:24;;;;;;;6.95;4.55;;;;;;;17.49;72.73;97685.09;5066231;28;20052;-72
2021/08/05 08:47:53;;;;;;;6.28;4.80;;;;;;;17.48;72.62;97671.59;5067466;28;20159;-74
2021/08/05 08:50:27;;;;;;;5.40;4.50;;;;;;;17.49;72.63;97665.69;5067753;28;20028;-73
2021/08/05 08:52:55;;;;;;;4.88;3.80;;;;;;;17.49;72.75;97659.34;5065523;28;20361;-71
2021/08/05 08:55:22;;;;;;;4.90;3.78;;;;;;;17.50;72.82;97663.72;5066275;28;20032;-71
2021/08/05 08:57:48;;;;;;;4.15;3.72;;;;;;;17.50;72.87;97663.72;5065426;28;20496;-71
2021/08/05 09:00:14;;;;;;;7.15;3.80;;;;;;;17.47;72.67;97656.91;5066401;28;20036;-72
2021/08/05 09:02:40;;;;;;;3.90;3.30;;;;;;;17.40;72.44;97659.53;5066732;28;20025;-73
2021/08/05 09:05:06;;;;;;;4.43;3.67;;;;;;;17.33;72.44;97662.94;5064618;28;20404;-70
2021/08/05 09:07:33;;;;;;;6.88;4.57;;;;;;;17.32;72.57;97663.31;5068726;28;20033;-70
2021/08/05 09:09:58;;;;;;;5.03;4.22;;;;;;;17.29;72.94;97669.59;5065174;28;20028;-71
2021/08/05 09:12:24;;;;;;;5.82;3.58;;;;;;;17.27;72.79;97664.38;5068020;28;20153;-70
2021/08/05 09:14:51;;;;;;;4.30;3.15;;;;;;;17.30;73.03;97660.13;5067411;28;20036;-72
2021/08/05 09:17:16;;;;;;;4.38;3.15;;;;;;;17.31;73.10;97670.03;5066747;28;20474;-73
2021/08/05 09:19:42;;;;;;;5.45;3.63;;;;;;;17.33;73.10;97670.44;5068770;28;20029;-72
2021/08/05 09:22:07;;;;;;;5.43;3.53;;;;;;;17.33;72.83;97659.38;5068958;28;20036;-73
2021/08/05 09:24:32;;;;;;;4.78;4.10;;;;;;;17.37;72.83;97654.72;5067792;28;20858;-75
2021/08/05 09:26:59;;;;;;;5.15;3.92;;;;;;;17.40;72.90;97656.75;5066154;28;20041;-76
2021/08/05 09:29:25;;;;;;;5.43;3.83;;;;;;;17.43;72.91;97652.47;5069097;28;20021;-76
2021/08/05 09:31:50;;;;;;;4.78;3.92;;;;;;;17.46;72.87;97648.97;5065967;28;20063;-76
2021/08/05 09:34:20;;;;;;;6.30;3.53;;;;;;;17.47;72.84;97647.81;5065090;28;20068;-74
2021/08/05 09:36:49;;;;;;;4.25;3.63;;;;;;;17.49;72.74;97651.81;5069610;28;20099;-74
2021/08/05 09:39:19;;;;;;;5.03;3.90;;;;;;;17.52;72.89;97658.63;5065937;28;20063;-75
2021/08/05 09:41:58;;;;;;;7.22;3.75;;;;;;;17.55;72.78;97657.88;5068295;28;20009;-75
2021/08/05 09:44:39;;;;;;;6.80;4.07;;;;;;;17.54;72.74;97657.09;5066776;28;20044;-75
2021/08/05 09:47:15;;;;;;;6.32;3.95;;;;;;;17.54;72.92;97654.31;5067052;28;20029;-75
2021/08/05 09:49:52;;;;;;;6.43;3.72;;;;;;;17.54;72.51;97651.53;5069152;28;20020;-77
2021/08/05 09:52:32;;;;;;;6.00;3.60;;;;;;;17.53;72.69;97644.38;5068531;28;20033;-74
2021/08/05 09:55:00;;;;;;;4.25;3.65;;;;;;;17.45;72.81;97647.38;5070093;28;20127;-73
2021/08/05 09:57:33;;;;;;;5.25;3.45;;;;;;;17.46;73.04;97643.44;5071847;28;20452;-72
2021/08/05 10:00:07;;;;;;;5.13;3.33;;;;;;;17.47;72.78;97645.84;5071063;28;20024;-72
2021/08/05 10:02:44;;;;;;;5.03;3.47;;;;;;;17.47;72.64;97651.38;5069580;28;20029;-72
2021/08/05 10:05:31;;;;;;;3.40;2.90;;;;;;;17.48;72.76;97654.97;5070686;28;20059;-72
2021/08/05 10:07:59;;;;;;;4.32;3.17;;;;;;;17.48;72.81;97641.13;5071410;28;20035;-74
2021/08/05 10:10:28;;;;;;;5.00;3.17;;;;;;;17.50;72.86;97639.56;5069795;28;20093;-73
2021/08/05 10:12:59;;;;;;;5.28;3.40;;;;;;;17.53;72.77;97630.53;5072641;28;20440;-72
2021/08/05 10:15:26;;;;;;;4.70;2.58;;;;;;;17.55;72.94;97625.44;5070192;28;20437;-72
2021/08/05 10:17:58;;;;;;;3.20;2.90;;;;;;;17.54;73.03;97623.00;5072233;28;20028;-71
2021/08/05 10:20:24;;;;;;;2.85;2.65;;;;;;;17.54;72.97;97621.03;5071816;28;20531;-72
2021/08/05 10:22:51;;;;;;;3.58;2.83;;;;;;;17.53;73.07;97619.44;5071749;28;20059;-72
2021/08/05 10:25:21;;;;;;;3.67;2.90;;;;;;;17.52;73.01;97609.50;5070948;28;20025;-73
2021/08/05 10:27:47;;;;;;;3.45;2.80;;;;;;;17.52;72.90;97605.97;5072346;28;20013;-73
2021/08/05 10:30:15;;;;;;;3.40;3.10;;;;;;;17.52;73.01;97597.63;5071745;28;20032;-72
2021/08/05 10:32:41;;;;;;;4.18;2.85;;;;;;;17.48;72.87;97599.53;5071123;28;20023;-71
2021/08/05 10:35:11;;;;;;;3.50;3.05;;;;;;;17.45;73.08;97589.16;5069290;28;20028;-72
2021/08/05 10:37:38;;;;;;;4.25;3.20;;;;;;;17.45;73.08;97581.63;5071113;28;20135;-72
2021/08/05 10:40:09;;;;;;;3.92;3.20;;;;;;;17.47;73.08;97579.31;5072501;28;20043;-71
2021/08/05 10:42:35;;;;;;;3.90;2.60;;;;;;;17.49;73.04;97573.41;5071813;28;20035;-72
2021/08/05 10:45:00;;;;;;;3.08;2.75;;;;;;;17.51;73.25;97576.63;5072239;28;20400;-73
2021/08/05 10:47:28;;;;;;;4.93;3.10;;;;;;;17.51;73.32;97569.09;5070693;28;20028;-73
2021/08/05 10:49:56;;;;;;;3.88;3.50;;;;;;;17.51;73.27;97558.00;5070850;28;20024;-73
2021/08/05 10:52:34;;;;;;;5.05;4.55;;;;;;;17.54;72.96;97564.78;5068261;28;20477;-74
2021/08/05 10:54:59;;;;;;;3.72;3.30;;;;;;;17.55;73.28;97552.53;5070847;28;20078;-74
2021/08/05 10:57:26;;;;;;;3.63;3.05;;;;;;;17.56;73.11;97549.41;5069348;28;20547;-74
2021/08/05 11:00:00;;;;;;;3.33;2.78;;;;;;;17.55;73.22;97547.81;5070245;28;20082;-72
2021/08/05 11:02:48;;;;;;;3.63;2.60;;;;;;;17.54;73.02;97539.84;5069242;28;20013;-71
2021/08/05 11:05:23;;;;;;;2.33;2.00;;;;;;;17.56;73.04;97543.03;5070568;28;20534;-73
2021/08/05 11:07:53;;;;;;;2.40;2.20;;;;;;;17.58;73.23;97539.91;5070980;28;20064;-73
2021/08/05 11:10:24;;;;;;;2.42;2.22;;;;;;;17.59;73.17;97545.09;5071329;28;20020;-74
2021/08/05 11:12:54;;;;;;;2.72;2.33;;;;;;;17.59;73.38;97541.53;5066329;28;20495;-73
2021/08/05 11:15:22;;;;;;;2.47;2.25;;;;;;;17.58;73.17;97537.94;5069460;28;20542;-72
2021/08/05 11:18:09;;;;;;;2.30;2.10;;;;;;;17.61;73.15;97533.66;5070224;28;20025;-73
2021/08/05 11:20:43;;;;;;;4.03;2.60;;;;;;;17.64;73.21;97522.63;5068123;28;20036;-73
2021/08/05 11:23:35;;;;;;;3.88;3.47;;;;;;;17.68;73.20;97522.69;5070152;28;20013;-74
2021/08/05 11:26:09;;;;;;;3.90;3.50;;;;;;;17.70;73.24;97520.38;5058733;28;20066;-75
2021/08/05 11:28:40;;;;;;;4.72;3.80;;;;;;;17.72;73.09;97512.50;5069675;28;20024;-73